createdAt,value
2018-09-27T00:00:08.530Z,4.95
2018-09-27T00:01:13.085Z,6.20
2018-09-27T00:02:17.509Z,4.75
2018-09-27T00:03:21.875Z,4.47
2018-09-27T00:04:26.496Z,4.28
2018-09-27T00:05:31.805Z,4.70
2018-09-27T00:06:36.228Z,5.05
2018-09-27T00:07:40.666Z,5.10
2018-09-27T00:08:45.208Z,5.70
2018-09-27T00:09:49.582Z,4.85
2018-09-27T00:10:54.175Z,5.10
2018-09-27T00:11:58.597Z,6.10
2018-09-27T00:13:02.974Z,4.60
2018-09-27T00:14:08.523Z,5.67
2018-09-27T00:15:12.973Z,5.40
2018-09-27T00:16:18.121Z,5.42
2018-09-27T00:17:22.518Z,5.95
2018-09-27T00:18:27.237Z,4.95
2018-09-27T00:19:34.500Z,4.42
2018-09-27T00:20:39.324Z,4.85
2018-09-27T00:21:43.730Z,4.55
2018-09-27T00:22:49.036Z,3.70
2018-09-27T00:23:53.467Z,3.83
2018-09-27T00:24:58.174Z,3.87
2018-09-27T00:26:03.466Z,4.45
2018-09-27T00:27:08.475Z,5.53
2018-09-27T00:28:13.015Z,4.20
2018-09-27T00:29:17.478Z,6.05
2018-09-27T00:30:22.617Z,7.97
2018-09-27T00:31:27.130Z,7.40
2018-09-27T00:32:31.799Z,9.03
2018-09-27T00:33:36.772Z,7.92
2018-09-27T00:34:41.282Z,7.67
2018-09-27T00:35:45.735Z,8.13
2018-09-27T00:36:50.106Z,6.50
2018-09-27T00:37:54.498Z,7.55
2018-09-27T00:38:59.152Z,6.22
2018-09-27T00:40:03.589Z,4.50
2018-09-27T00:41:07.949Z,4.67
2018-09-27T00:42:12.323Z,5.47
2018-09-27T00:43:16.646Z,4.58
2018-09-27T00:44:22.005Z,4.42
2018-09-27T00:45:26.400Z,3.90
2018-09-27T00:46:30.761Z,3.83
2018-09-27T00:47:35.149Z,3.85
2018-09-27T00:48:39.572Z,4.65
2018-09-27T00:49:43.909Z,4.30
2018-09-27T00:50:48.851Z,3.85
2018-09-27T00:51:53.224Z,4.62
2018-09-27T00:52:57.747Z,3.70
2018-09-27T00:54:02.638Z,4.40
2018-09-27T00:55:07.221Z,4.62
2018-09-27T00:56:11.669Z,3.75
2018-09-27T00:57:16.293Z,5.22
2018-09-27T00:58:21.751Z,3.60
2018-09-27T00:59:26.472Z,3.87
2018-09-27T01:00:31.114Z,4.45
2018-09-27T01:01:35.882Z,4.00
2018-09-27T01:02:40.309Z,3.72
2018-09-27T01:03:44.626Z,4.08
2018-09-27T01:04:49.022Z,3.58
2018-09-27T01:05:53.620Z,4.75
2018-09-27T01:06:58.045Z,3.90
2018-09-27T01:08:02.565Z,3.77
2018-09-27T01:09:09.145Z,4.00
2018-09-27T01:10:13.498Z,5.58
2018-09-27T01:11:17.855Z,5.90
2018-09-27T01:12:22.368Z,7.28
2018-09-27T01:13:27.271Z,5.90
2018-09-27T01:14:31.621Z,6.03
2018-09-27T01:15:36.033Z,5.70
2018-09-27T01:16:40.393Z,6.03
2018-09-27T01:17:44.815Z,4.95
2018-09-27T01:19:19.845Z,4.97
2018-09-27T01:20:24.801Z,4.10
2018-09-27T01:21:29.536Z,4.70
2018-09-27T01:22:33.910Z,4.90
2018-09-27T01:23:38.731Z,5.42
2018-09-27T01:24:43.134Z,6.47
2018-09-27T01:25:47.565Z,6.70
2018-09-27T01:26:51.902Z,6.37
2018-09-27T01:27:56.302Z,5.65
2018-09-27T01:29:01.312Z,6.42
2018-09-27T01:30:06.392Z,6.72
2018-09-27T01:31:11.294Z,5.22
2018-09-27T01:32:15.675Z,5.90
2018-09-27T01:33:20.089Z,6.08
2018-09-27T01:34:24.861Z,6.85
2018-09-27T01:35:30.285Z,6.30
2018-09-27T01:36:35.412Z,6.33
2018-09-27T01:37:39.906Z,6.00
2018-09-27T01:38:44.244Z,6.17
2018-09-27T01:39:48.636Z,5.70
2018-09-27T01:40:53.543Z,5.95
2018-09-27T01:41:57.938Z,4.53
2018-09-27T01:43:02.360Z,5.78
2018-09-27T01:44:06.845Z,4.35
2018-09-27T01:45:11.245Z,4.30
2018-09-27T01:46:15.517Z,4.05
2018-09-27T01:47:20.393Z,4.45
2018-09-27T01:48:24.807Z,4.10
2018-09-27T01:49:29.159Z,4.55
2018-09-27T01:50:35.645Z,4.08
2018-09-27T01:51:40.028Z,5.50
2018-09-27T01:52:44.461Z,3.72
2018-09-27T01:53:48.841Z,3.58
2018-09-27T01:54:53.209Z,4.78
2018-09-27T01:55:57.736Z,3.72
2018-09-27T01:57:02.418Z,5.05
2018-09-27T01:58:06.744Z,4.85
2018-09-27T01:59:11.348Z,5.40
2018-09-27T02:00:15.695Z,6.03
2018-09-27T02:01:20.068Z,6.25
2018-09-27T02:02:24.384Z,5.20
2018-09-27T02:03:28.897Z,5.10
2018-09-27T02:04:33.346Z,7.10
2018-09-27T02:05:37.905Z,7.30
2018-09-27T02:06:42.234Z,9.18
2018-09-27T02:07:46.574Z,8.48
2018-09-27T02:08:50.993Z,7.75
2018-09-27T02:09:55.366Z,9.75
2018-09-27T02:10:59.750Z,8.45
2018-09-27T02:12:05.008Z,8.18
2018-09-27T02:13:09.832Z,7.85
2018-09-27T02:14:14.165Z,7.25
2018-09-27T02:15:19.653Z,6.85
2018-09-27T02:16:24.074Z,7.10
2018-09-27T02:17:28.409Z,7.60
2018-09-27T02:18:32.793Z,7.12
2018-09-27T02:19:37.193Z,7.40
2018-09-27T02:20:41.567Z,4.95
2018-09-27T02:21:46.120Z,4.92
2018-09-27T02:22:50.516Z,4.53
2018-09-27T02:23:55.044Z,4.87
2018-09-27T02:24:59.994Z,4.08
2018-09-27T02:26:04.681Z,5.25
2018-09-27T02:27:09.066Z,4.25
2018-09-27T02:28:13.734Z,4.33
2018-09-27T02:29:18.052Z,4.50
2018-09-27T02:30:22.384Z,5.50
2018-09-27T02:31:26.762Z,5.03
2018-09-27T02:32:31.238Z,5.90
2018-09-27T02:33:35.627Z,6.55
2018-09-27T02:34:41.581Z,6.67
2018-09-27T02:35:46.799Z,6.70
2018-09-27T02:36:51.142Z,6.90
2018-09-27T02:37:55.683Z,6.97
2018-09-27T02:39:00.081Z,5.55
2018-09-27T02:40:04.511Z,6.37
2018-09-27T02:41:08.941Z,6.95
2018-09-27T02:42:13.283Z,8.50
2018-09-27T02:43:17.665Z,8.75
2018-09-27T02:44:22.437Z,9.60
2018-09-27T02:45:26.825Z,10.03
2018-09-27T02:46:31.182Z,8.30
2018-09-27T02:47:35.777Z,9.10
2018-09-27T02:48:40.165Z,9.20
2018-09-27T02:49:44.496Z,8.70
2018-09-27T02:50:49.227Z,9.45
2018-09-27T02:51:53.939Z,9.15
2018-09-27T02:52:58.253Z,10.43
2018-09-27T02:54:02.599Z,10.03
2018-09-27T02:55:06.977Z,6.10
2018-09-27T02:56:11.383Z,6.55
2018-09-27T02:57:15.749Z,5.87
2018-09-27T02:58:20.075Z,6.30
2018-09-27T02:59:24.703Z,3.98
2018-09-27T03:00:29.282Z,4.25
2018-09-27T03:01:33.675Z,3.58
2018-09-27T03:02:38.050Z,3.77
2018-09-27T03:03:42.439Z,4.40
2018-09-27T03:04:46.857Z,3.65
2018-09-27T03:05:51.201Z,3.37
2018-09-27T03:06:55.555Z,4.28
2018-09-27T03:07:59.916Z,4.42
2018-09-27T03:09:04.843Z,4.50
2018-09-27T03:10:09.260Z,4.10
2018-09-27T03:11:13.604Z,5.10
2018-09-27T03:12:17.965Z,5.78
2018-09-27T03:13:22.377Z,5.10
2018-09-27T03:14:26.785Z,6.47
2018-09-27T03:15:31.173Z,6.47
2018-09-27T03:16:35.699Z,7.20
2018-09-27T03:17:40.172Z,5.70
2018-09-27T03:18:45.154Z,5.10
2018-09-27T03:19:49.573Z,4.30
2018-09-27T03:20:53.989Z,4.75
2018-09-27T03:21:58.288Z,5.12
2018-09-27T03:23:02.668Z,4.35
2018-09-27T03:24:07.515Z,5.35
2018-09-27T03:25:11.886Z,5.45
2018-09-27T03:26:16.817Z,8.80
2018-09-27T03:27:21.282Z,7.15
2018-09-27T03:28:26.045Z,7.72
2018-09-27T03:29:31.694Z,8.75
2018-09-27T03:30:36.353Z,8.35
2018-09-27T03:31:40.713Z,7.45
2018-09-27T03:32:45.100Z,7.10
2018-09-27T03:33:49.400Z,8.23
2018-09-27T03:34:53.712Z,11.68
2018-09-27T03:35:58.108Z,11.35
2018-09-27T03:37:02.417Z,11.70
2018-09-27T03:38:10.200Z,10.35
2018-09-27T03:39:15.570Z,9.73
2018-09-27T03:40:19.982Z,9.93
2018-09-27T03:41:24.318Z,10.28
2018-09-27T03:42:28.701Z,7.70
2018-09-27T03:43:33.463Z,9.00
2018-09-27T03:44:37.843Z,5.37
2018-09-27T03:45:42.217Z,4.15
2018-09-27T03:46:46.654Z,4.15
2018-09-27T03:47:51.187Z,4.22
2018-09-27T03:48:55.755Z,5.37
2018-09-27T03:50:00.137Z,3.60
2018-09-27T03:51:05.738Z,3.45
2018-09-27T03:52:10.113Z,4.20
2018-09-27T03:53:14.470Z,3.17
2018-09-27T03:54:18.899Z,4.35
2018-09-27T03:55:25.696Z,6.22
2018-09-27T03:56:31.741Z,4.72
2018-09-27T03:57:36.080Z,6.35
2018-09-27T03:58:40.490Z,7.83
2018-09-27T03:59:45.233Z,6.87
2018-09-27T04:00:49.622Z,5.40
2018-09-27T04:01:54.140Z,5.70
2018-09-27T04:02:58.558Z,5.28
2018-09-27T04:04:02.954Z,3.65
2018-09-27T04:05:07.343Z,4.03
2018-09-27T04:06:11.750Z,3.70
2018-09-27T04:07:16.308Z,4.00
2018-09-27T04:08:20.686Z,4.30
2018-09-27T04:09:25.086Z,3.60
2018-09-27T04:10:29.649Z,4.10
2018-09-27T04:11:34.848Z,3.90
2018-09-27T04:12:41.191Z,3.65
2018-09-27T04:13:46.680Z,3.52
2018-09-27T04:14:51.065Z,3.00
2018-09-27T04:15:55.883Z,3.65
2018-09-27T04:17:00.258Z,3.85
2018-09-27T04:18:05.954Z,4.03
2018-09-27T04:19:10.399Z,3.10
2018-09-27T04:20:14.710Z,3.70
2018-09-27T04:21:19.063Z,3.85
2018-09-27T04:22:23.429Z,3.62
2018-09-27T04:23:27.878Z,3.95
2018-09-27T04:24:32.298Z,3.83
2018-09-27T04:25:36.689Z,3.67
2018-09-27T04:26:41.060Z,3.58
2018-09-27T04:27:45.415Z,3.02
2018-09-27T04:28:50.994Z,3.95
2018-09-27T04:29:55.448Z,3.15
2018-09-27T04:31:00.862Z,4.37
2018-09-27T04:32:05.205Z,3.85
2018-09-27T04:33:09.698Z,4.00
2018-09-27T04:34:14.505Z,4.08
2018-09-27T04:35:18.807Z,3.72
2018-09-27T04:36:23.256Z,3.95
2018-09-27T04:37:27.693Z,4.28
2018-09-27T04:38:32.073Z,3.67
2018-09-27T04:39:36.880Z,3.27
2018-09-27T04:40:42.285Z,3.90
2018-09-27T04:42:01.952Z,4.35
2018-09-27T04:43:08.217Z,3.80
2018-09-27T04:44:13.239Z,3.45
2018-09-27T04:45:18.544Z,3.70
2018-09-27T04:47:26.851Z,3.52
2018-09-27T04:48:31.210Z,3.50
2018-09-27T04:49:36.601Z,4.17
2018-09-27T04:50:42.155Z,4.00
2018-09-27T04:51:47.055Z,3.80
2018-09-27T04:52:59.380Z,3.65
2018-09-27T04:54:13.113Z,4.17
2018-09-27T04:55:22.501Z,3.62
2018-09-27T04:56:27.057Z,4.42
2018-09-27T04:57:31.433Z,5.03
2018-09-27T04:58:37.597Z,3.35
2018-09-27T04:59:42.176Z,3.20
2018-09-27T05:00:48.750Z,4.03
2018-09-27T05:01:53.083Z,4.53
2018-09-27T05:02:57.654Z,3.75
2018-09-27T05:04:02.891Z,3.58
2018-09-27T05:05:08.638Z,17.67
2018-09-27T05:06:13.268Z,52.65
2018-09-27T05:07:17.754Z,16.35
2018-09-27T05:08:22.112Z,10.60
2018-09-27T05:09:29.990Z,7.45
2018-09-27T05:10:34.632Z,19.57
2018-09-27T05:11:39.137Z,12.58
2018-09-27T05:12:44.786Z,21.05
2018-09-27T05:13:49.457Z,15.60
2018-09-27T05:14:54.821Z,84.85
2018-09-27T05:15:59.652Z,26.65
2018-09-27T05:17:07.239Z,18.98
2018-09-27T05:18:17.862Z,11.20
2018-09-27T05:19:24.280Z,10.10
2018-09-27T05:20:32.707Z,8.78
2018-09-27T05:21:39.902Z,19.65
2018-09-27T05:22:49.595Z,26.85
2018-09-27T05:24:04.580Z,37.35
2018-09-27T05:25:15.525Z,26.33
2018-09-27T05:26:22.470Z,21.07
2018-09-27T05:27:28.706Z,33.65
2018-09-27T05:28:42.416Z,27.98
2018-09-27T05:29:53.170Z,29.12
2018-09-27T05:31:02.362Z,20.45
2018-09-27T05:32:09.298Z,14.58
2018-09-27T05:33:15.330Z,13.83
2018-09-27T05:34:22.488Z,49.00
2018-09-27T05:35:44.837Z,19.98
2018-09-27T05:36:49.794Z,17.15
2018-09-27T05:37:58.965Z,26.27
2018-09-27T05:39:11.313Z,26.62
2018-09-27T05:40:16.172Z,88.12
2018-09-27T05:41:21.855Z,83.10
2018-09-27T05:42:31.250Z,32.45
2018-09-27T05:43:36.306Z,79.75
2018-09-27T05:44:42.797Z,95.17
2018-09-27T05:45:47.254Z,56.05
2018-09-27T05:46:51.646Z,26.60
2018-09-27T05:47:56.338Z,26.93
2018-09-27T05:49:01.632Z,25.65
2018-09-27T05:50:07.813Z,18.82
2018-09-27T05:51:12.243Z,37.75
2018-09-27T05:52:16.678Z,28.42
2018-09-27T05:53:23.187Z,24.82
2018-09-27T05:54:27.660Z,20.17
2018-09-27T05:55:32.741Z,17.07
2018-09-27T05:56:37.228Z,13.45
2018-09-27T05:57:41.648Z,39.38
2018-09-27T05:58:46.273Z,14.68
2018-09-27T05:59:50.839Z,18.82
2018-09-27T06:00:56.233Z,15.10
2018-09-27T06:02:00.741Z,15.15
2018-09-27T06:03:07.815Z,8.60
2018-09-27T06:04:12.859Z,14.30
2018-09-27T06:05:17.465Z,12.15
2018-09-27T06:06:23.407Z,9.63
2018-09-27T06:07:28.182Z,10.00
2018-09-27T06:08:33.631Z,7.20
2018-09-27T06:09:38.297Z,9.10
2018-09-27T06:10:43.291Z,7.03
2018-09-27T06:11:48.381Z,7.33
2018-09-27T06:12:53.796Z,9.35
2018-09-27T06:13:58.306Z,8.40
2018-09-27T06:15:02.707Z,8.03
2018-09-27T06:16:08.193Z,7.90
2018-09-27T06:17:12.617Z,6.50
2018-09-27T06:18:17.360Z,8.65
2018-09-27T06:19:23.523Z,8.45
2018-09-27T06:20:27.958Z,8.23
2018-09-27T06:21:37.257Z,12.60
2018-09-27T06:22:45.804Z,10.90
2018-09-27T06:23:51.827Z,9.90
2018-09-27T06:24:57.341Z,15.03
2018-09-27T06:26:02.302Z,14.15
2018-09-27T06:27:08.441Z,14.68
2018-09-27T06:28:12.814Z,11.65
2018-09-27T06:29:18.225Z,11.53
2018-09-27T06:30:22.673Z,11.40
2018-09-27T06:31:27.221Z,10.10
2018-09-27T06:32:32.276Z,9.68
2018-09-27T06:33:39.554Z,9.48
2018-09-27T06:34:44.239Z,10.40
2018-09-27T06:35:48.665Z,8.93
2018-09-27T06:36:53.278Z,10.13
2018-09-27T06:37:59.220Z,9.25
2018-09-27T06:39:05.282Z,9.93
2018-09-27T06:40:10.414Z,10.82
2018-09-27T06:41:16.811Z,8.40
2018-09-27T06:42:22.470Z,7.78
2018-09-27T06:43:27.923Z,6.97
2018-09-27T06:44:32.560Z,6.92
2018-09-27T06:45:38.185Z,6.22
2018-09-27T06:46:42.750Z,5.08
2018-09-27T06:47:47.724Z,4.33
2018-09-27T06:48:53.201Z,4.60
2018-09-27T06:49:59.960Z,6.25
2018-09-27T06:51:05.995Z,6.80
2018-09-27T06:52:12.696Z,5.58
2018-09-27T06:53:17.977Z,6.70
2018-09-27T06:54:22.642Z,7.60
2018-09-27T06:55:32.158Z,5.95
2018-09-27T06:56:38.665Z,5.47
2018-09-27T06:57:50.028Z,5.97
2018-09-27T06:58:55.674Z,4.75
2018-09-27T07:00:00.475Z,4.25
2018-09-27T07:01:06.015Z,4.85
2018-09-27T07:02:13.012Z,4.28
2018-09-27T07:03:19.554Z,5.80
2018-09-27T07:04:24.530Z,4.47
2018-09-27T07:05:29.452Z,5.85
2018-09-27T07:06:34.422Z,4.90
2018-09-27T07:07:39.385Z,4.70
2018-09-27T07:08:44.605Z,4.00
2018-09-27T07:09:49.220Z,4.60
2018-09-27T07:10:56.620Z,4.05
2018-09-27T07:13:59.179Z,8.00
2018-09-27T07:15:06.061Z,6.30
2018-09-27T07:16:12.220Z,6.75
2018-09-27T07:17:19.950Z,5.65
2018-09-27T07:18:32.332Z,6.42
2018-09-27T07:19:42.829Z,6.12
2018-09-27T07:20:49.575Z,6.60
2018-09-27T07:21:55.617Z,5.83
2018-09-27T07:23:00.892Z,5.50
2018-09-27T07:24:06.883Z,6.30
2018-09-27T07:25:12.725Z,5.45
2018-09-27T07:26:18.271Z,5.10
2018-09-27T07:27:22.730Z,6.00
2018-09-27T07:28:27.450Z,5.80
2018-09-27T07:29:32.857Z,4.92
2018-09-27T07:30:38.040Z,5.35
2018-09-27T07:31:42.659Z,5.87
2018-09-27T07:32:47.607Z,5.65
2018-09-27T07:33:54.497Z,4.87
2018-09-27T07:34:59.095Z,5.12
2018-09-27T07:36:11.348Z,4.50
2018-09-27T07:37:17.440Z,6.20
2018-09-27T07:38:24.023Z,6.12
2018-09-27T07:39:50.872Z,5.70
2018-09-27T07:40:56.809Z,5.03
2018-09-27T07:42:11.502Z,5.75
2018-09-27T07:43:17.787Z,5.12
2018-09-27T07:44:22.642Z,5.03
2018-09-27T07:45:28.167Z,5.30
2018-09-27T07:46:33.918Z,4.83
2018-09-27T07:47:38.744Z,5.12
2018-09-27T07:48:44.448Z,5.67
2018-09-27T07:49:49.128Z,5.60
2018-09-27T07:50:55.164Z,5.53
2018-09-27T07:52:00.036Z,3.47
2018-09-27T07:53:06.008Z,3.50
2018-09-27T07:54:12.251Z,3.85
2018-09-27T07:55:19.238Z,4.58
2018-09-27T07:56:25.165Z,3.02
2018-09-27T07:57:32.329Z,3.60
2018-09-27T07:58:47.652Z,3.98
2018-09-27T07:59:54.990Z,4.30
2018-09-27T08:01:01.476Z,3.50
2018-09-27T08:02:06.737Z,4.15
2018-09-27T08:03:14.812Z,3.85
2018-09-27T08:04:21.038Z,3.35
2018-09-27T08:05:29.351Z,3.33
2018-09-27T08:06:33.577Z,3.52
2018-09-27T08:07:40.773Z,3.30
2018-09-27T08:08:51.188Z,3.85
2018-09-27T08:09:55.716Z,3.30
2018-09-27T08:11:01.104Z,3.20
2018-09-27T08:12:06.592Z,3.83
2018-09-27T08:13:12.023Z,5.12
2018-09-27T08:14:17.729Z,4.10
2018-09-27T08:15:23.621Z,3.22
2018-09-27T08:17:31.362Z,4.85
2018-09-27T08:18:37.173Z,4.20
2018-09-27T08:19:42.849Z,4.12
2018-09-27T08:21:11.218Z,4.10
2018-09-27T08:22:16.685Z,3.85
2018-09-27T08:23:22.172Z,3.55
2018-09-27T08:24:27.831Z,4.15
2018-09-27T08:25:34.536Z,3.72
2018-09-27T08:26:41.717Z,5.03
2018-09-27T08:27:47.250Z,4.58
2018-09-27T08:28:53.763Z,4.00
2018-09-27T08:29:58.743Z,4.53
2018-09-27T08:31:03.284Z,3.70
2018-09-27T08:32:08.830Z,4.10
2018-09-27T08:33:13.251Z,4.75
2018-09-27T08:34:17.918Z,5.45
2018-09-27T08:35:22.368Z,3.47
2018-09-27T08:36:28.805Z,4.08
2018-09-27T08:37:34.757Z,3.08
2018-09-27T08:38:39.729Z,3.90
2018-09-27T08:39:44.151Z,7.45
2018-09-27T08:40:48.740Z,5.55
2018-09-27T08:41:53.253Z,3.87
2018-09-27T08:42:57.848Z,3.80
2018-09-27T08:44:02.533Z,3.50
2018-09-27T08:45:07.497Z,3.25
2018-09-27T08:46:13.153Z,3.80
2018-09-27T08:47:21.208Z,3.80
2018-09-27T08:48:26.463Z,4.17
2018-09-27T08:49:35.529Z,4.45
2018-09-27T08:50:40.417Z,3.92
2018-09-27T08:51:45.889Z,3.70
2018-09-27T08:52:50.719Z,4.03
2018-09-27T08:53:57.329Z,3.20
2018-09-27T08:55:01.917Z,3.42
2018-09-27T08:56:06.496Z,4.45
2018-09-27T08:57:11.780Z,3.85
2018-09-27T08:58:23.318Z,3.95
2018-09-27T08:59:30.952Z,4.55
2018-09-27T09:00:35.517Z,3.90
2018-09-27T09:01:40.152Z,3.85
2018-09-27T09:02:45.358Z,4.12
2018-09-27T09:03:50.229Z,3.83
2018-09-27T09:04:54.906Z,4.70
2018-09-27T09:06:00.907Z,3.65
2018-09-27T09:07:07.925Z,3.25
2018-09-27T09:08:14.460Z,4.08
2018-09-27T09:09:19.230Z,3.95
2018-09-27T09:10:25.964Z,3.80
2018-09-27T09:11:31.435Z,4.67
2018-09-27T09:12:38.024Z,3.58
2018-09-27T09:13:42.508Z,3.60
2018-09-27T09:14:52.672Z,3.45
2018-09-27T09:15:58.753Z,3.37
2018-09-27T09:17:16.712Z,3.15
2018-09-27T09:18:23.335Z,3.20
2018-09-27T09:19:28.591Z,3.00
2018-09-27T09:20:33.158Z,3.87
2018-09-27T09:21:38.718Z,3.42
2018-09-27T09:22:44.861Z,3.90
2018-09-27T09:23:52.374Z,2.55
2018-09-27T09:24:59.042Z,3.20
2018-09-27T09:26:05.357Z,4.03
2018-09-27T09:27:10.322Z,3.35
2018-09-27T09:28:15.817Z,2.80
2018-09-27T09:29:21.427Z,3.58
2018-09-27T09:30:26.903Z,3.65
2018-09-27T09:31:31.676Z,3.75
2018-09-27T09:32:36.355Z,4.17
2018-09-27T09:33:41.646Z,3.33
2018-09-27T09:34:46.468Z,3.10
2018-09-27T09:35:53.564Z,3.22
2018-09-27T09:36:58.554Z,3.55
2018-09-27T09:38:04.967Z,3.60
2018-09-27T09:39:22.729Z,3.50
2018-09-27T09:40:32.706Z,3.40
2018-09-27T09:41:40.048Z,3.35
2018-09-27T09:42:46.999Z,3.15
2018-09-27T09:43:53.382Z,3.72
2018-09-27T09:44:59.431Z,3.47
2018-09-27T09:46:05.629Z,3.17
2018-09-27T09:47:10.749Z,3.50
2018-09-27T09:48:16.951Z,3.35
2018-09-27T09:49:22.555Z,3.35
2018-09-27T09:50:37.622Z,3.98
2018-09-27T09:51:48.864Z,3.15
2018-09-27T09:52:57.108Z,4.12
2018-09-27T09:54:08.441Z,4.40
2018-09-27T09:55:21.604Z,3.62
2018-09-27T09:56:27.443Z,3.45
2018-09-27T09:59:00.219Z,3.95
2018-09-27T10:00:10.387Z,5.22
2018-09-27T10:01:18.590Z,5.20
2018-09-27T10:02:25.204Z,6.30
2018-09-27T10:03:32.401Z,6.12
2018-09-27T10:04:41.881Z,4.20
2018-09-27T10:05:51.842Z,3.55
2018-09-27T10:06:59.860Z,4.00
2018-09-27T10:08:06.828Z,3.65
2018-09-27T10:09:30.103Z,3.22
2018-09-27T10:10:40.686Z,4.15
2018-09-27T10:11:54.652Z,3.92
2018-09-27T10:13:01.302Z,3.87
2018-09-27T10:14:09.054Z,4.67
2018-09-27T10:16:56.208Z,4.37
2018-09-27T10:18:10.465Z,3.15
2018-09-27T10:19:16.926Z,4.35
2018-09-27T10:20:23.393Z,4.72
2018-09-27T10:21:29.267Z,4.00
2018-09-27T10:22:35.626Z,4.00
2018-09-27T10:23:46.225Z,4.28
2018-09-27T10:24:53.557Z,4.83
2018-09-27T10:25:59.383Z,17.23
2018-09-27T10:27:05.407Z,13.28
2018-09-27T10:28:12.397Z,12.20
2018-09-27T10:29:17.170Z,9.35
2018-09-27T10:30:21.820Z,7.75
2018-09-27T10:31:27.595Z,5.22
2018-09-27T10:32:33.402Z,5.53
2018-09-27T10:33:38.852Z,5.62
2018-09-27T10:34:43.819Z,5.55
2018-09-27T10:35:48.801Z,5.08
2018-09-27T10:36:54.935Z,3.33
2018-09-27T10:38:13.641Z,4.47
2018-09-27T10:39:20.354Z,4.67
2018-09-27T10:40:24.798Z,4.53
2018-09-27T10:41:29.334Z,4.28
2018-09-27T10:42:34.010Z,5.62
2018-09-27T10:43:39.729Z,4.45
2018-09-27T10:44:44.524Z,5.28
2018-09-27T10:45:48.969Z,3.58
2018-09-27T10:46:55.227Z,3.90
2018-09-27T10:47:59.630Z,4.30
2018-09-27T10:49:04.580Z,4.40
2018-09-27T10:50:09.502Z,3.65
2018-09-27T10:51:15.180Z,3.85
2018-09-27T10:52:20.862Z,4.80
2018-09-27T10:53:25.957Z,4.50
2018-09-27T10:54:32.916Z,4.20
2018-09-27T10:55:42.359Z,3.87
2018-09-27T10:56:48.916Z,4.67
2018-09-27T10:57:55.089Z,3.70
2018-09-27T10:59:00.674Z,3.87
2018-09-27T11:00:06.536Z,5.55
2018-09-27T11:01:16.512Z,5.67
2018-09-27T11:02:22.331Z,5.20
2018-09-27T11:03:29.489Z,4.10
2018-09-27T11:04:34.313Z,5.37
2018-09-27T11:05:41.553Z,6.72
2018-09-27T11:06:47.256Z,7.00
2018-09-27T11:07:51.997Z,7.58
2018-09-27T11:08:59.888Z,8.25
2018-09-27T11:10:05.411Z,7.95
2018-09-27T11:11:10.553Z,9.13
2018-09-27T11:12:17.217Z,9.80
2018-09-27T11:13:21.869Z,10.58
2018-09-27T11:14:28.437Z,10.38
2018-09-27T11:15:51.300Z,8.15
2018-09-27T11:16:57.198Z,6.85
2018-09-27T11:18:02.858Z,8.38
2018-09-27T11:19:07.532Z,8.85
2018-09-27T11:20:17.830Z,7.78
2018-09-27T11:21:25.246Z,6.65
2018-09-27T11:22:32.861Z,9.68
2018-09-27T11:23:40.053Z,8.10
2018-09-27T11:24:50.755Z,8.40
2018-09-27T11:25:57.706Z,10.78
2018-09-27T11:27:04.483Z,7.92
2018-09-27T11:28:12.178Z,8.50
2018-09-27T11:29:26.079Z,7.47
2018-09-27T11:30:34.814Z,9.95
2018-09-27T11:31:45.257Z,9.28
2018-09-27T11:32:56.980Z,10.38
2018-09-27T11:34:05.963Z,12.03
2018-09-27T11:35:19.235Z,9.48
2018-09-27T11:36:31.386Z,10.05
2018-09-27T11:37:42.331Z,9.38
2018-09-27T11:39:20.671Z,10.55
2018-09-27T11:40:27.433Z,9.70
2018-09-27T11:41:32.825Z,9.85
2018-09-27T11:42:37.407Z,9.55
2018-09-27T11:43:42.771Z,9.45
2018-09-27T11:44:48.921Z,9.63
2018-09-27T11:45:54.211Z,9.43
2018-09-27T11:46:58.790Z,9.63
2018-09-27T11:48:03.667Z,9.50
2018-09-27T11:49:09.472Z,11.20
2018-09-27T11:50:15.253Z,14.70
2018-09-27T11:51:21.651Z,10.75
2018-09-27T11:52:26.786Z,8.93
2018-09-27T11:53:31.559Z,9.45
2018-09-27T11:54:36.406Z,10.15
2018-09-27T11:55:43.382Z,10.98
2018-09-27T11:56:48.951Z,9.20
2018-09-27T11:57:55.354Z,9.30
2018-09-27T11:59:00.388Z,8.18
2018-09-27T12:00:05.443Z,8.88
2018-09-27T12:01:10.474Z,9.68
2018-09-27T12:02:16.146Z,7.30
2018-09-27T12:03:21.940Z,6.78
2018-09-27T12:05:55.628Z,6.42
2018-09-27T12:07:02.425Z,6.03
2018-09-27T12:08:12.315Z,7.95
2018-09-27T12:09:38.286Z,7.33
2018-09-27T12:10:44.793Z,9.93
2018-09-27T12:11:49.394Z,7.53
2018-09-27T12:12:57.311Z,5.75
2018-09-27T12:14:05.903Z,6.03
2018-09-27T12:15:19.840Z,3.85
2018-09-27T12:16:24.881Z,4.60
2018-09-27T12:17:31.333Z,5.53
2018-09-27T12:18:36.653Z,4.90
2018-09-27T12:19:41.785Z,4.60
2018-09-27T12:20:49.619Z,4.05
2018-09-27T12:22:17.297Z,3.15
2018-09-27T12:23:22.818Z,3.83
2018-09-27T12:24:28.280Z,3.90
2018-09-27T12:25:34.932Z,3.30
2018-09-27T12:26:40.378Z,4.33
2018-09-27T12:27:48.696Z,3.75
2018-09-27T12:28:53.424Z,3.90
2018-09-27T12:29:58.243Z,3.92
2018-09-27T12:31:04.107Z,4.47
2018-09-27T12:32:08.782Z,4.67
2018-09-27T12:33:14.663Z,3.35
2018-09-27T12:34:35.590Z,2.83
2018-09-27T12:35:51.124Z,4.40
2018-09-27T12:37:00.050Z,4.45
2018-09-27T12:38:08.917Z,3.27
2018-09-27T12:39:15.229Z,2.45
2018-09-27T12:40:21.276Z,3.65
2018-09-27T12:41:28.293Z,3.37
2018-09-27T12:42:35.637Z,7.03
2018-09-27T12:43:42.457Z,3.98
2018-09-27T12:44:49.584Z,5.53
2018-09-27T12:46:11.727Z,3.05
2018-09-27T12:47:17.916Z,4.42
2018-09-27T12:48:24.045Z,5.42
2018-09-27T12:49:29.088Z,5.65
2018-09-27T12:50:36.249Z,3.77
2018-09-27T12:51:45.204Z,2.30
2018-09-27T12:52:54.357Z,3.60
2018-09-27T12:54:01.780Z,5.45
2018-09-27T12:55:08.603Z,6.30
2018-09-27T12:56:14.539Z,4.40
2018-09-27T12:57:23.768Z,4.03
2018-09-27T12:58:35.657Z,2.72
2018-09-27T12:59:42.491Z,3.60
2018-09-27T13:00:49.794Z,3.70
2018-09-27T13:01:57.692Z,3.35
2018-09-27T13:03:04.318Z,3.35
2018-09-27T13:04:09.317Z,2.85
2018-09-27T13:05:14.360Z,3.33
2018-09-27T13:06:19.250Z,2.52
2018-09-27T13:07:26.564Z,4.12
2018-09-27T13:08:32.380Z,2.90
2018-09-27T13:09:39.476Z,3.55
2018-09-27T13:10:45.809Z,2.50
2018-09-27T13:11:52.270Z,4.30
2018-09-27T13:12:57.033Z,2.30
2018-09-27T13:14:03.507Z,3.15
2018-09-27T13:15:21.872Z,3.67
2018-09-27T13:16:29.602Z,3.83
2018-09-27T13:17:37.438Z,5.20
2018-09-27T13:18:42.325Z,3.02
2018-09-27T13:19:48.255Z,2.60
2018-09-27T13:20:53.722Z,2.95
2018-09-27T13:22:00.304Z,4.70
2018-09-27T13:23:05.991Z,3.05
2018-09-27T13:24:11.857Z,3.05
2018-09-27T13:25:23.948Z,4.65
2018-09-27T13:26:30.238Z,3.60
2018-09-27T13:27:34.717Z,3.60
2018-09-27T13:28:39.695Z,2.37
2018-09-27T13:30:13.972Z,4.10
2018-09-27T13:31:19.699Z,4.60
2018-09-27T13:32:24.755Z,4.40
2018-09-27T13:33:30.716Z,3.80
2018-09-27T13:34:35.518Z,4.80
2018-09-27T13:35:40.319Z,2.72
2018-09-27T13:36:46.416Z,6.47
2018-09-27T13:37:51.177Z,2.95
2018-09-27T13:38:56.851Z,3.62
2018-09-27T13:40:02.329Z,3.90
2018-09-27T13:41:08.226Z,4.62
2018-09-27T13:42:12.805Z,8.03
2018-09-27T13:43:17.502Z,9.03
2018-09-27T13:44:25.251Z,5.65
2018-09-27T13:45:33.602Z,7.33
2018-09-27T13:46:38.842Z,11.30
2018-09-27T13:47:44.268Z,20.20
2018-09-27T13:48:48.839Z,8.85
2018-09-27T13:49:54.117Z,20.88
2018-09-27T13:51:01.607Z,14.28
2018-09-27T13:52:08.745Z,21.05
2018-09-27T13:53:15.576Z,18.12
2018-09-27T13:54:20.106Z,17.05
2018-09-27T13:55:25.892Z,6.55
2018-09-27T13:56:31.380Z,4.30
2018-09-27T13:57:36.375Z,15.40
2018-09-27T13:58:44.913Z,13.32
2018-09-27T13:59:49.477Z,11.15
2018-09-27T14:00:53.966Z,5.45
2018-09-27T14:01:58.520Z,2.90
2018-09-27T14:03:05.767Z,6.17
2018-09-27T14:04:12.402Z,2.62
2018-09-27T14:05:19.189Z,2.80
2018-09-27T14:06:28.369Z,3.80
2018-09-27T14:07:36.142Z,6.30
2018-09-27T14:08:41.281Z,7.10
2018-09-27T14:09:50.337Z,8.73
2018-09-27T14:10:57.988Z,4.28
2018-09-27T14:12:06.201Z,9.35
2018-09-27T14:13:13.818Z,8.95
2018-09-27T14:14:20.371Z,17.20
2018-09-27T14:15:28.872Z,6.90
2018-09-27T14:16:36.539Z,7.80
2018-09-27T14:17:41.768Z,11.18
2018-09-27T14:18:49.582Z,5.45
2018-09-27T14:19:56.605Z,5.60
2018-09-27T14:21:05.553Z,8.63
2018-09-27T14:22:10.353Z,4.35
2018-09-27T14:23:16.206Z,8.83
2018-09-27T14:24:23.393Z,8.70
2018-09-27T14:25:28.510Z,9.50
2018-09-27T14:26:33.096Z,6.55
2018-09-27T14:27:41.895Z,8.63
2018-09-27T14:28:52.274Z,7.95
2018-09-27T14:29:57.890Z,9.00
2018-09-27T14:31:04.144Z,10.82
2018-09-27T14:32:09.319Z,10.32
2018-09-27T14:33:14.198Z,13.60
2018-09-27T14:34:20.683Z,29.60
2018-09-27T14:35:31.249Z,46.98
2018-09-27T14:36:36.982Z,28.70
2018-09-27T14:37:42.603Z,22.58
2018-09-27T14:38:50.507Z,12.58
2018-09-27T14:39:56.194Z,23.57
2018-09-27T14:41:01.001Z,25.77
2018-09-27T14:42:06.389Z,42.03
2018-09-27T14:43:12.246Z,39.23
2018-09-27T14:44:32.812Z,37.05
2018-09-27T14:45:37.434Z,17.05